Kezdőlap
METAR-TAF:

METAR-TAF

Repülőterek :

Makkovik, Újfundland és Labrador, Kanada

földrajzi szélesség: 55-05N, földrajzi hosszúság: 059-11W, magasság: 71 m

Jelenlegi meteorológiai megfigyelések

A jelentés 11 órával és 0 perccel ezelõtt készült, 20:00 UTC
Keleti szél 12 kt
Hőmérséklet 2°C
Páratartalom 93%
Légköri nyomás 1019 hPa
Látótávolság: 4.8 km
Borult 600 lábon
enyhe szitálás, ködfoltok

METAR: CYFT 212000Z 09012KT 3SM -DZ BCFG OVC006 02/01 A3008 RMK ST8 LAST STFD OBS/NEXT220900Z SLP191

Idő: 04:00 (07:00 UTC)


TAF: hiányzik

Meteorológiai megfigyelések és előrejelzések több, mint 4000 repülőtéren (METAR és TAF jelentéseket).

A térképen piros és sárga pontok jelzik az elérhető meteorológiai állomásokat.

Mozgassa az egeret a pont fölött, hogy megjelenjen az állomás neve.

Azután kattintson az időjárási megfigyelések és előrejelzések megtekintéséhez.

A térkép megváltoztatása: kattintson a fekete keresztel jelölt zöld gombra ráközelítéshez, a vonallal jelölt zöld gombra távolításhoz, vagy a zöld nyilakra a szomszédos térképek eléréséhez.


METAR-TAF: